sensor_id;sensor_type;location;lat;lon;timestamp;P1;durP1;ratioP1;P2;durP2;ratioP2
16516;SDS011;8371;52.272;9.746;2023-07-28T00:01:25;0.83;;;0.83;;
16516;SDS011;8371;52.272;9.746;2023-07-28T00:03:51;0.70;;;0.70;;
16516;SDS011;8371;52.272;9.746;2023-07-28T00:06:17;0.57;;;0.57;;
16516;SDS011;8371;52.272;9.746;2023-07-28T00:08:43;0.60;;;0.60;;
16516;SDS011;8371;52.272;9.746;2023-07-28T00:11:13;0.67;;;0.67;;
16516;SDS011;8371;52.272;9.746;2023-07-28T00:13:39;1.37;;;0.70;;
16516;SDS011;8371;52.272;9.746;2023-07-28T00:16:06;0.80;;;0.80;;
16516;SDS011;8371;52.272;9.746;2023-07-28T00:18:33;0.60;;;0.60;;
16516;SDS011;8371;52.272;9.746;2023-07-28T00:20:58;1.00;;;1.00;;
16516;SDS011;8371;52.272;9.746;2023-07-28T00:23:24;0.90;;;0.90;;
16516;SDS011;8371;52.272;9.746;2023-07-28T00:25:51;1.13;;;0.80;;
16516;SDS011;8371;52.272;9.746;2023-07-28T00:28:16;0.80;;;0.80;;
16516;SDS011;8371;52.272;9.746;2023-07-28T00:30:42;0.90;;;0.90;;
16516;SDS011;8371;52.272;9.746;2023-07-28T00:33:08;1.00;;;1.00;;
16516;SDS011;8371;52.272;9.746;2023-07-28T00:35:34;0.90;;;0.90;;
16516;SDS011;8371;52.272;9.746;2023-07-28T00:37:59;0.80;;;0.80;;
16516;SDS011;8371;52.272;9.746;2023-07-28T00:40:25;0.90;;;0.90;;
16516;SDS011;8371;52.272;9.746;2023-07-28T00:42:51;0.70;;;0.70;;
16516;SDS011;8371;52.272;9.746;2023-07-28T00:45:16;0.80;;;0.80;;
16516;SDS011;8371;52.272;9.746;2023-07-28T00:47:42;2.43;;;0.80;;
16516;SDS011;8371;52.272;9.746;2023-07-28T00:50:08;1.00;;;1.00;;
16516;SDS011;8371;52.272;9.746;2023-07-28T00:52:35;0.70;;;0.70;;
16516;SDS011;8371;52.272;9.746;2023-07-28T00:55:01;0.90;;;0.90;;
16516;SDS011;8371;52.272;9.746;2023-07-28T00:57:27;0.67;;;0.67;;
16516;SDS011;8371;52.272;9.746;2023-07-28T00:59:53;1.13;;;0.67;;
16516;SDS011;8371;52.272;9.746;2023-07-28T01:02:19;0.50;;;0.50;;
16516;SDS011;8371;52.272;9.746;2023-07-28T01:04:46;0.50;;;0.50;;
16516;SDS011;8371;52.272;9.746;2023-07-28T01:07:14;1.93;;;0.87;;
16516;SDS011;8371;52.272;9.746;2023-07-28T01:09:50;0.77;;;0.77;;
16516;SDS011;8371;52.272;9.746;2023-07-28T01:12:14;0.63;;;0.63;;
16516;SDS011;8371;52.272;9.746;2023-07-28T01:14:40;0.40;;;0.40;;
16516;SDS011;8371;52.272;9.746;2023-07-28T01:17:05;0.43;;;0.43;;
16516;SDS011;8371;52.272;9.746;2023-07-28T01:19:31;0.47;;;0.47;;
16516;SDS011;8371;52.272;9.746;2023-07-28T01:22:04;0.93;;;0.57;;
16516;SDS011;8371;52.272;9.746;2023-07-28T01:24:51;0.30;;;0.30;;
16516;SDS011;8371;52.272;9.746;2023-07-28T01:27:29;0.60;;;0.50;;
16516;SDS011;8371;52.272;9.746;2023-07-28T01:29:55;0.40;;;0.40;;
16516;SDS011;8371;52.272;9.746;2023-07-28T01:32:21;0.67;;;0.67;;
16516;SDS011;8371;52.272;9.746;2023-07-28T01:34:47;0.40;;;0.40;;
16516;SDS011;8371;52.272;9.746;2023-07-28T01:37:12;1.17;;;0.40;;
16516;SDS011;8371;52.272;9.746;2023-07-28T01:39:38;1.40;;;0.20;;
16516;SDS011;8371;52.272;9.746;2023-07-28T01:42:04;0.40;;;0.40;;
16516;SDS011;8371;52.272;9.746;2023-07-28T01:44:30;0.43;;;0.43;;
16516;SDS011;8371;52.272;9.746;2023-07-28T01:46:55;4.10;;;0.70;;
16516;SDS011;8371;52.272;9.746;2023-07-28T01:49:21;0.30;;;0.30;;
16516;SDS011;8371;52.272;9.746;2023-07-28T01:51:47;1.10;;;0.90;;
16516;SDS011;8371;52.272;9.746;2023-07-28T01:54:12;0.37;;;0.30;;
16516;SDS011;8371;52.272;9.746;2023-07-28T01:56:38;0.50;;;0.50;;
16516;SDS011;8371;52.272;9.746;2023-07-28T01:59:04;0.50;;;0.50;;
16516;SDS011;8371;52.272;9.746;2023-07-28T02:01:29;0.50;;;0.50;;
16516;SDS011;8371;52.272;9.746;2023-07-28T02:03:55;0.50;;;0.40;;
16516;SDS011;8371;52.272;9.746;2023-07-28T02:06:21;0.47;;;0.40;;
16516;SDS011;8371;52.272;9.746;2023-07-28T02:08:47;0.50;;;0.50;;
16516;SDS011;8371;52.272;9.746;2023-07-28T02:11:12;0.37;;;0.37;;
16516;SDS011;8371;52.272;9.746;2023-07-28T02:13:38;0.40;;;0.40;;
16516;SDS011;8371;52.272;9.746;2023-07-28T02:16:04;0.73;;;0.50;;
16516;SDS011;8371;52.272;9.746;2023-07-28T02:18:30;0.60;;;0.60;;
16516;SDS011;8371;52.272;9.746;2023-07-28T02:20:55;0.47;;;0.47;;
16516;SDS011;8371;52.272;9.746;2023-07-28T02:23:21;0.50;;;0.50;;
16516;SDS011;8371;52.272;9.746;2023-07-28T02:25:47;0.40;;;0.40;;
16516;SDS011;8371;52.272;9.746;2023-07-28T02:28:12;0.50;;;0.50;;
16516;SDS011;8371;52.272;9.746;2023-07-28T02:30:38;0.40;;;0.40;;
16516;SDS011;8371;52.272;9.746;2023-07-28T02:33:04;2.10;;;0.47;;
16516;SDS011;8371;52.272;9.746;2023-07-28T02:35:30;0.70;;;0.50;;
16516;SDS011;8371;52.272;9.746;2023-07-28T02:37:57;0.40;;;0.40;;
16516;SDS011;8371;52.272;9.746;2023-07-28T02:40:23;0.50;;;0.50;;
16516;SDS011;8371;52.272;9.746;2023-07-28T02:42:49;0.53;;;0.40;;
16516;SDS011;8371;52.272;9.746;2023-07-28T02:45:15;0.60;;;0.60;;
16516;SDS011;8371;52.272;9.746;2023-07-28T02:47:40;0.40;;;0.40;;
16516;SDS011;8371;52.272;9.746;2023-07-28T02:50:06;0.30;;;0.30;;
16516;SDS011;8371;52.272;9.746;2023-07-28T02:52:32;0.40;;;0.40;;
16516;SDS011;8371;52.272;9.746;2023-07-28T02:54:58;0.83;;;0.53;;
16516;SDS011;8371;52.272;9.746;2023-07-28T02:57:23;0.20;;;0.20;;
16516;SDS011;8371;52.272;9.746;2023-07-28T02:59:49;0.47;;;0.47;;
16516;SDS011;8371;52.272;9.746;2023-07-28T03:02:15;0.40;;;0.40;;
16516;SDS011;8371;52.272;9.746;2023-07-28T03:04:40;0.50;;;0.50;;
16516;SDS011;8371;52.272;9.746;2023-07-28T03:07:06;0.60;;;0.60;;
16516;SDS011;8371;52.272;9.746;2023-07-28T03:09:32;2.03;;;0.53;;
16516;SDS011;8371;52.272;9.746;2023-07-28T03:11:57;0.30;;;0.30;;
16516;SDS011;8371;52.272;9.746;2023-07-28T03:14:23;0.40;;;0.40;;
16516;SDS011;8371;52.272;9.746;2023-07-28T03:16:49;0.33;;;0.33;;
16516;SDS011;8371;52.272;9.746;2023-07-28T03:19:15;0.40;;;0.40;;
16516;SDS011;8371;52.272;9.746;2023-07-28T03:21:40;0.30;;;0.30;;
16516;SDS011;8371;52.272;9.746;2023-07-28T03:24:06;0.20;;;0.20;;
16516;SDS011;8371;52.272;9.746;2023-07-28T03:26:32;0.30;;;0.30;;
16516;SDS011;8371;52.272;9.746;2023-07-28T03:28:57;0.40;;;0.40;;
16516;SDS011;8371;52.272;9.746;2023-07-28T03:31:23;0.30;;;0.30;;
16516;SDS011;8371;52.272;9.746;2023-07-28T03:33:49;0.50;;;0.30;;
16516;SDS011;8371;52.272;9.746;2023-07-28T03:36:14;0.30;;;0.30;;
16516;SDS011;8371;52.272;9.746;2023-07-28T03:38:40;0.30;;;0.30;;
16516;SDS011;8371;52.272;9.746;2023-07-28T03:41:06;0.20;;;0.20;;
16516;SDS011;8371;52.272;9.746;2023-07-28T03:43:32;0.30;;;0.30;;
16516;SDS011;8371;52.272;9.746;2023-07-28T03:45:58;0.30;;;0.30;;
16516;SDS011;8371;52.272;9.746;2023-07-28T03:48:23;0.10;;;0.10;;
16516;SDS011;8371;52.272;9.746;2023-07-28T03:50:49;0.20;;;0.20;;
16516;SDS011;8371;52.272;9.746;2023-07-28T03:53:15;0.20;;;0.20;;
16516;SDS011;8371;52.272;9.746;2023-07-28T03:55:40;0.30;;;0.30;;
16516;SDS011;8371;52.272;9.746;2023-07-28T03:58:06;0.30;;;0.30;;
16516;SDS011;8371;52.272;9.746;2023-07-28T04:00:33;2.27;;;0.40;;
16516;SDS011;8371;52.272;9.746;2023-07-28T04:02:58;0.30;;;0.30;;
16516;SDS011;8371;52.272;9.746;2023-07-28T04:05:24;0.37;;;0.37;;
16516;SDS011;8371;52.272;9.746;2023-07-28T04:07:50;0.30;;;0.30;;
16516;SDS011;8371;52.272;9.746;2023-07-28T04:10:15;0.20;;;0.20;;
16516;SDS011;8371;52.272;9.746;2023-07-28T04:12:41;0.40;;;0.40;;
16516;SDS011;8371;52.272;9.746;2023-07-28T04:15:07;0.37;;;0.37;;
16516;SDS011;8371;52.272;9.746;2023-07-28T04:17:33;0.43;;;0.43;;
16516;SDS011;8371;52.272;9.746;2023-07-28T04:19:59;0.40;;;0.40;;
16516;SDS011;8371;52.272;9.746;2023-07-28T04:22:25;0.40;;;0.40;;
16516;SDS011;8371;52.272;9.746;2023-07-28T04:24:50;0.50;;;0.50;;
16516;SDS011;8371;52.272;9.746;2023-07-28T04:27:16;0.40;;;0.40;;
16516;SDS011;8371;52.272;9.746;2023-07-28T04:29:42;0.73;;;0.50;;
16516;SDS011;8371;52.272;9.746;2023-07-28T04:32:08;0.50;;;0.50;;
16516;SDS011;8371;52.272;9.746;2023-07-28T04:34:34;0.47;;;0.47;;
16516;SDS011;8371;52.272;9.746;2023-07-28T04:36:59;0.60;;;0.60;;
16516;SDS011;8371;52.272;9.746;2023-07-28T04:39:25;0.73;;;0.57;;
16516;SDS011;8371;52.272;9.746;2023-07-28T04:41:51;0.53;;;0.53;;
16516;SDS011;8371;52.272;9.746;2023-07-28T04:44:17;0.47;;;0.47;;
16516;SDS011;8371;52.272;9.746;2023-07-28T04:46:43;0.33;;;0.33;;
16516;SDS011;8371;52.272;9.746;2023-07-28T04:49:09;0.80;;;0.80;;
16516;SDS011;8371;52.272;9.746;2023-07-28T04:51:34;0.60;;;0.60;;
16516;SDS011;8371;52.272;9.746;2023-07-28T04:54:00;0.60;;;0.60;;
16516;SDS011;8371;52.272;9.746;2023-07-28T04:56:26;0.53;;;0.53;;
16516;SDS011;8371;52.272;9.746;2023-07-28T04:58:51;0.60;;;0.60;;
16516;SDS011;8371;52.272;9.746;2023-07-28T05:01:17;0.57;;;0.57;;
16516;SDS011;8371;52.272;9.746;2023-07-28T05:03:43;0.80;;;0.80;;
16516;SDS011;8371;52.272;9.746;2023-07-28T05:06:09;1.33;;;0.63;;
16516;SDS011;8371;52.272;9.746;2023-07-28T05:08:34;0.57;;;0.57;;
16516;SDS011;8371;52.272;9.746;2023-07-28T05:11:01;1.03;;;0.80;;
16516;SDS011;8371;52.272;9.746;2023-07-28T05:13:27;0.50;;;0.50;;
16516;SDS011;8371;52.272;9.746;2023-07-28T05:15:52;0.50;;;0.50;;
16516;SDS011;8371;52.272;9.746;2023-07-28T05:18:18;0.53;;;0.53;;
16516;SDS011;8371;52.272;9.746;2023-07-28T05:20:44;0.50;;;0.50;;
16516;SDS011;8371;52.272;9.746;2023-07-28T05:23:09;0.70;;;0.70;;
16516;SDS011;8371;52.272;9.746;2023-07-28T05:25:35;0.50;;;0.50;;
16516;SDS011;8371;52.272;9.746;2023-07-28T05:28:01;0.83;;;0.83;;
16516;SDS011;8371;52.272;9.746;2023-07-28T05:30:26;0.60;;;0.60;;
16516;SDS011;8371;52.272;9.746;2023-07-28T05:32:53;0.60;;;0.60;;
16516;SDS011;8371;52.272;9.746;2023-07-28T05:35:19;0.60;;;0.60;;
16516;SDS011;8371;52.272;9.746;2023-07-28T05:37:46;0.70;;;0.70;;
16516;SDS011;8371;52.272;9.746;2023-07-28T05:40:12;2.97;;;0.80;;
16516;SDS011;8371;52.272;9.746;2023-07-28T05:42:38;1.00;;;0.83;;
16516;SDS011;8371;52.272;9.746;2023-07-28T05:45:04;1.70;;;0.80;;
16516;SDS011;8371;52.272;9.746;2023-07-28T05:47:30;0.83;;;0.83;;
16516;SDS011;8371;52.272;9.746;2023-07-28T05:49:56;1.00;;;1.00;;
16516;SDS011;8371;52.272;9.746;2023-07-28T05:52:22;0.80;;;0.80;;
16516;SDS011;8371;52.272;9.746;2023-07-28T05:54:48;1.10;;;1.10;;
16516;SDS011;8371;52.272;9.746;2023-07-28T05:57:13;1.00;;;1.00;;
16516;SDS011;8371;52.272;9.746;2023-07-28T05:59:39;1.50;;;0.87;;
16516;SDS011;8371;52.272;9.746;2023-07-28T06:02:05;0.83;;;0.83;;
16516;SDS011;8371;52.272;9.746;2023-07-28T06:04:31;0.77;;;0.77;;
16516;SDS011;8371;52.272;9.746;2023-07-28T06:06:57;3.13;;;0.93;;
16516;SDS011;8371;52.272;9.746;2023-07-28T06:09:22;0.80;;;0.80;;
16516;SDS011;8371;52.272;9.746;2023-07-28T06:11:48;0.80;;;0.80;;
16516;SDS011;8371;52.272;9.746;2023-07-28T06:14:14;1.00;;;1.00;;
16516;SDS011;8371;52.272;9.746;2023-07-28T06:16:40;1.17;;;1.00;;
16516;SDS011;8371;52.272;9.746;2023-07-28T06:19:06;1.10;;;1.10;;
16516;SDS011;8371;52.272;9.746;2023-07-28T06:21:33;1.00;;;1.00;;
16516;SDS011;8371;52.272;9.746;2023-07-28T06:23:59;0.80;;;0.80;;
16516;SDS011;8371;52.272;9.746;2023-07-28T06:26:25;0.67;;;0.67;;
16516;SDS011;8371;52.272;9.746;2023-07-28T06:28:51;0.90;;;0.90;;
16516;SDS011;8371;52.272;9.746;2023-07-28T06:31:16;1.10;;;0.93;;
16516;SDS011;8371;52.272;9.746;2023-07-28T06:33:42;1.17;;;1.17;;
16516;SDS011;8371;52.272;9.746;2023-07-28T06:36:08;0.90;;;0.90;;
16516;SDS011;8371;52.272;9.746;2023-07-28T06:38:33;0.93;;;0.90;;
16516;SDS011;8371;52.272;9.746;2023-07-28T06:40:59;0.97;;;0.97;;
16516;SDS011;8371;52.272;9.746;2023-07-28T06:43:25;0.90;;;0.90;;
16516;SDS011;8371;52.272;9.746;2023-07-28T06:45:52;1.13;;;1.13;;
16516;SDS011;8371;52.272;9.746;2023-07-28T06:48:18;1.20;;;1.20;;
16516;SDS011;8371;52.272;9.746;2023-07-28T06:50:44;1.00;;;1.00;;
16516;SDS011;8371;52.272;9.746;2023-07-28T06:53:10;1.10;;;1.10;;
16516;SDS011;8371;52.272;9.746;2023-07-28T06:55:35;1.20;;;1.10;;
16516;SDS011;8371;52.272;9.746;2023-07-28T06:58:03;1.47;;;1.43;;
16516;SDS011;8371;52.272;9.746;2023-07-28T07:00:28;1.10;;;1.10;;
16516;SDS011;8371;52.272;9.746;2023-07-28T07:02:54;1.10;;;1.10;;
16516;SDS011;8371;52.272;9.746;2023-07-28T07:05:20;1.03;;;1.03;;
16516;SDS011;8371;52.272;9.746;2023-07-28T07:07:46;1.37;;;1.37;;
16516;SDS011;8371;52.272;9.746;2023-07-28T07:10:12;1.60;;;1.20;;
16516;SDS011;8371;52.272;9.746;2023-07-28T07:12:39;0.90;;;0.90;;
16516;SDS011;8371;52.272;9.746;2023-07-28T07:15:05;0.97;;;0.97;;
16516;SDS011;8371;52.272;9.746;2023-07-28T07:17:32;1.03;;;0.90;;
16516;SDS011;8371;52.272;9.746;2023-07-28T07:19:58;0.90;;;0.90;;
16516;SDS011;8371;52.272;9.746;2023-07-28T07:22:24;0.90;;;0.90;;
16516;SDS011;8371;52.272;9.746;2023-07-28T07:24:51;1.00;;;1.00;;
16516;SDS011;8371;52.272;9.746;2023-07-28T07:27:16;1.03;;;1.03;;
16516;SDS011;8371;52.272;9.746;2023-07-28T07:29:42;0.77;;;0.77;;
16516;SDS011;8371;52.272;9.746;2023-07-28T07:32:08;1.00;;;1.00;;
16516;SDS011;8371;52.272;9.746;2023-07-28T07:34:35;0.80;;;0.80;;
16516;SDS011;8371;52.272;9.746;2023-07-28T07:37:02;0.90;;;0.90;;
16516;SDS011;8371;52.272;9.746;2023-07-28T07:39:28;0.97;;;0.90;;
16516;SDS011;8371;52.272;9.746;2023-07-28T07:41:54;0.97;;;0.97;;
16516;SDS011;8371;52.272;9.746;2023-07-28T07:44:20;0.93;;;0.93;;
16516;SDS011;8371;52.272;9.746;2023-07-28T07:46:45;0.90;;;0.90;;
16516;SDS011;8371;52.272;9.746;2023-07-28T07:49:11;0.97;;;0.97;;
16516;SDS011;8371;52.272;9.746;2023-07-28T07:51:37;1.10;;;1.10;;
16516;SDS011;8371;52.272;9.746;2023-07-28T07:54:02;1.00;;;1.00;;
16516;SDS011;8371;52.272;9.746;2023-07-28T07:56:29;1.17;;;1.17;;
16516;SDS011;8371;52.272;9.746;2023-07-28T07:58:54;1.00;;;1.00;;
16516;SDS011;8371;52.272;9.746;2023-07-28T08:01:20;1.17;;;1.17;;
16516;SDS011;8371;52.272;9.746;2023-07-28T08:03:46;1.53;;;1.20;;
16516;SDS011;8371;52.272;9.746;2023-07-28T08:06:11;0.90;;;0.90;;
16516;SDS011;8371;52.272;9.746;2023-07-28T08:08:37;0.97;;;0.97;;
16516;SDS011;8371;52.272;9.746;2023-07-28T08:11:03;1.07;;;1.07;;
16516;SDS011;8371;52.272;9.746;2023-07-28T08:13:29;1.00;;;1.00;;
16516;SDS011;8371;52.272;9.746;2023-07-28T08:15:55;1.00;;;1.00;;
16516;SDS011;8371;52.272;9.746;2023-07-28T08:18:20;1.00;;;1.00;;
16516;SDS011;8371;52.272;9.746;2023-07-28T08:20:46;1.07;;;1.07;;
16516;SDS011;8371;52.272;9.746;2023-07-28T08:23:12;1.00;;;1.00;;
16516;SDS011;8371;52.272;9.746;2023-07-28T08:25:37;1.10;;;1.10;;
16516;SDS011;8371;52.272;9.746;2023-07-28T08:28:03;1.00;;;1.00;;
16516;SDS011;8371;52.272;9.746;2023-07-28T08:30:29;0.90;;;0.90;;
16516;SDS011;8371;52.272;9.746;2023-07-28T08:32:55;0.93;;;0.93;;
16516;SDS011;8371;52.272;9.746;2023-07-28T08:35:21;1.10;;;1.10;;
16516;SDS011;8371;52.272;9.746;2023-07-28T08:37:46;0.93;;;0.93;;
16516;SDS011;8371;52.272;9.746;2023-07-28T08:40:12;0.97;;;0.97;;
16516;SDS011;8371;52.272;9.746;2023-07-28T08:42:39;1.10;;;1.10;;
16516;SDS011;8371;52.272;9.746;2023-07-28T08:45:06;0.80;;;0.80;;
16516;SDS011;8371;52.272;9.746;2023-07-28T08:47:34;0.93;;;0.93;;
16516;SDS011;8371;52.272;9.746;2023-07-28T08:50:00;1.17;;;0.93;;
16516;SDS011;8371;52.272;9.746;2023-07-28T08:52:26;0.90;;;0.90;;
16516;SDS011;8371;52.272;9.746;2023-07-28T08:54:53;0.80;;;0.80;;
16516;SDS011;8371;52.272;9.746;2023-07-28T08:57:19;0.73;;;0.73;;
16516;SDS011;8371;52.272;9.746;2023-07-28T08:59:46;0.77;;;0.77;;
16516;SDS011;8371;52.272;9.746;2023-07-28T09:02:15;0.80;;;0.80;;
16516;SDS011;8371;52.272;9.746;2023-07-28T09:04:43;1.13;;;0.90;;
16516;SDS011;8371;52.272;9.746;2023-07-28T09:07:09;0.80;;;0.80;;
16516;SDS011;8371;52.272;9.746;2023-07-28T09:09:35;0.80;;;0.80;;
16516;SDS011;8371;52.272;9.746;2023-07-28T09:12:06;0.80;;;0.80;;
16516;SDS011;8371;52.272;9.746;2023-07-28T09:14:36;1.07;;;1.07;;
16516;SDS011;8371;52.272;9.746;2023-07-28T09:17:07;0.90;;;0.90;;
16516;SDS011;8371;52.272;9.746;2023-07-28T09:19:34;0.80;;;0.80;;
16516;SDS011;8371;52.272;9.746;2023-07-28T09:22:00;0.70;;;0.70;;
16516;SDS011;8371;52.272;9.746;2023-07-28T09:24:30;0.67;;;0.67;;
16516;SDS011;8371;52.272;9.746;2023-07-28T09:26:57;0.77;;;0.77;;
16516;SDS011;8371;52.272;9.746;2023-07-28T09:29:23;0.83;;;0.83;;
16516;SDS011;8371;52.272;9.746;2023-07-28T09:31:53;1.10;;;1.10;;
16516;SDS011;8371;52.272;9.746;2023-07-28T09:34:25;0.80;;;0.80;;
16516;SDS011;8371;52.272;9.746;2023-07-28T09:36:59;0.70;;;0.70;;
16516;SDS011;8371;52.272;9.746;2023-07-28T09:39:26;0.80;;;0.80;;
16516;SDS011;8371;52.272;9.746;2023-07-28T09:41:53;1.73;;;0.70;;
16516;SDS011;8371;52.272;9.746;2023-07-28T09:44:21;0.80;;;0.80;;
16516;SDS011;8371;52.272;9.746;2023-07-28T09:46:49;0.80;;;0.80;;
16516;SDS011;8371;52.272;9.746;2023-07-28T09:49:22;0.90;;;0.90;;
16516;SDS011;8371;52.272;9.746;2023-07-28T09:51:57;1.80;;;0.70;;
16516;SDS011;8371;52.272;9.746;2023-07-28T09:54:28;0.73;;;0.73;;
16516;SDS011;8371;52.272;9.746;2023-07-28T09:56:55;0.73;;;0.73;;
16516;SDS011;8371;52.272;9.746;2023-07-28T09:59:24;0.90;;;0.90;;
16516;SDS011;8371;52.272;9.746;2023-07-28T10:01:59;0.67;;;0.67;;
16516;SDS011;8371;52.272;9.746;2023-07-28T10:04:27;1.00;;;1.00;;
16516;SDS011;8371;52.272;9.746;2023-07-28T10:06:53;0.70;;;0.70;;
16516;SDS011;8371;52.272;9.746;2023-07-28T10:09:25;0.80;;;0.80;;
16516;SDS011;8371;52.272;9.746;2023-07-28T10:11:53;1.13;;;0.70;;
16516;SDS011;8371;52.272;9.746;2023-07-28T10:14:30;1.80;;;1.00;;
16516;SDS011;8371;52.272;9.746;2023-07-28T10:16:54;0.90;;;0.90;;
16516;SDS011;8371;52.272;9.746;2023-07-28T10:19:20;0.90;;;0.90;;
16516;SDS011;8371;52.272;9.746;2023-07-28T10:21:46;0.90;;;0.90;;
16516;SDS011;8371;52.272;9.746;2023-07-28T10:24:12;0.97;;;0.97;;
16516;SDS011;8371;52.272;9.746;2023-07-28T10:26:40;0.80;;;0.80;;
16516;SDS011;8371;52.272;9.746;2023-07-28T10:29:10;0.80;;;0.80;;
16516;SDS011;8371;52.272;9.746;2023-07-28T10:31:48;0.80;;;0.80;;
16516;SDS011;8371;52.272;9.746;2023-07-28T10:34:17;0.60;;;0.60;;
16516;SDS011;8371;52.272;9.746;2023-07-28T10:36:43;0.80;;;0.80;;
16516;SDS011;8371;52.272;9.746;2023-07-28T10:39:13;0.87;;;0.87;;
16516;SDS011;8371;52.272;9.746;2023-07-28T10:44:31;0.70;;;0.70;;
16516;SDS011;8371;52.272;9.746;2023-07-28T10:46:57;0.73;;;0.73;;
16516;SDS011;8371;52.272;9.746;2023-07-28T10:49:26;3.70;;;0.90;;
16516;SDS011;8371;52.272;9.746;2023-07-28T10:51:52;0.80;;;0.80;;
16516;SDS011;8371;52.272;9.746;2023-07-28T10:54:17;0.73;;;0.73;;
16516;SDS011;8371;52.272;9.746;2023-07-28T10:56:45;0.80;;;0.80;;
16516;SDS011;8371;52.272;9.746;2023-07-28T10:59:12;0.90;;;0.90;;
16516;SDS011;8371;52.272;9.746;2023-07-28T11:01:39;0.93;;;0.93;;
16516;SDS011;8371;52.272;9.746;2023-07-28T11:04:15;0.60;;;0.60;;
16516;SDS011;8371;52.272;9.746;2023-07-28T11:06:46;0.77;;;0.77;;
16516;SDS011;8371;52.272;9.746;2023-07-28T11:09:14;0.80;;;0.80;;
16516;SDS011;8371;52.272;9.746;2023-07-28T11:11:42;0.80;;;0.80;;
16516;SDS011;8371;52.272;9.746;2023-07-28T11:14:08;0.70;;;0.70;;
16516;SDS011;8371;52.272;9.746;2023-07-28T11:16:35;0.93;;;0.93;;
16516;SDS011;8371;52.272;9.746;2023-07-28T11:19:03;0.80;;;0.80;;
16516;SDS011;8371;52.272;9.746;2023-07-28T11:21:30;0.80;;;0.80;;
16516;SDS011;8371;52.272;9.746;2023-07-28T11:23:56;0.90;;;0.90;;
16516;SDS011;8371;52.272;9.746;2023-07-28T11:26:23;0.70;;;0.70;;
16516;SDS011;8371;52.272;9.746;2023-07-28T11:28:48;1.00;;;1.00;;
16516;SDS011;8371;52.272;9.746;2023-07-28T11:31:14;0.90;;;0.90;;
16516;SDS011;8371;52.272;9.746;2023-07-28T11:33:40;0.67;;;0.67;;
16516;SDS011;8371;52.272;9.746;2023-07-28T11:36:06;0.53;;;0.53;;
16516;SDS011;8371;52.272;9.746;2023-07-28T11:38:32;0.67;;;0.67;;
16516;SDS011;8371;52.272;9.746;2023-07-28T11:40:59;0.83;;;0.83;;
16516;SDS011;8371;52.272;9.746;2023-07-28T11:43:25;0.70;;;0.70;;
16516;SDS011;8371;52.272;9.746;2023-07-28T11:45:51;0.97;;;0.97;;
16516;SDS011;8371;52.272;9.746;2023-07-28T11:48:17;0.70;;;0.70;;
16516;SDS011;8371;52.272;9.746;2023-07-28T11:50:43;0.80;;;0.80;;
16516;SDS011;8371;52.272;9.746;2023-07-28T11:53:10;0.93;;;0.93;;
16516;SDS011;8371;52.272;9.746;2023-07-28T11:55:37;1.10;;;1.10;;
16516;SDS011;8371;52.272;9.746;2023-07-28T11:58:04;1.70;;;1.13;;
16516;SDS011;8371;52.272;9.746;2023-07-28T12:00:31;1.00;;;1.00;;
16516;SDS011;8371;52.272;9.746;2023-07-28T12:03:06;0.90;;;0.90;;
16516;SDS011;8371;52.272;9.746;2023-07-28T12:05:36;0.87;;;0.87;;
16516;SDS011;8371;52.272;9.746;2023-07-28T12:08:03;2.00;;;0.90;;
16516;SDS011;8371;52.272;9.746;2023-07-28T12:10:29;0.87;;;0.87;;
16516;SDS011;8371;52.272;9.746;2023-07-28T12:12:57;0.83;;;0.83;;
16516;SDS011;8371;52.272;9.746;2023-07-28T12:15:24;0.90;;;0.90;;
16516;SDS011;8371;52.272;9.746;2023-07-28T12:18:01;0.90;;;0.90;;
16516;SDS011;8371;52.272;9.746;2023-07-28T12:20:40;1.10;;;1.10;;
16516;SDS011;8371;52.272;9.746;2023-07-28T12:23:09;0.80;;;0.80;;
16516;SDS011;8371;52.272;9.746;2023-07-28T12:25:35;1.40;;;1.00;;
16516;SDS011;8371;52.272;9.746;2023-07-28T12:28:02;1.03;;;1.03;;
16516;SDS011;8371;52.272;9.746;2023-07-28T12:30:29;1.10;;;1.10;;
16516;SDS011;8371;52.272;9.746;2023-07-28T12:32:55;0.90;;;0.90;;
16516;SDS011;8371;52.272;9.746;2023-07-28T12:35:21;0.90;;;0.90;;
16516;SDS011;8371;52.272;9.746;2023-07-28T12:37:49;0.83;;;0.83;;
16516;SDS011;8371;52.272;9.746;2023-07-28T12:40:16;0.90;;;0.90;;
16516;SDS011;8371;52.272;9.746;2023-07-28T12:42:44;1.10;;;1.10;;
16516;SDS011;8371;52.272;9.746;2023-07-28T12:45:12;1.20;;;1.20;;
16516;SDS011;8371;52.272;9.746;2023-07-28T12:47:38;1.10;;;1.10;;
16516;SDS011;8371;52.272;9.746;2023-07-28T12:50:04;0.93;;;0.93;;
16516;SDS011;8371;52.272;9.746;2023-07-28T12:52:32;0.80;;;0.80;;
16516;SDS011;8371;52.272;9.746;2023-07-28T12:54:57;0.90;;;0.90;;
16516;SDS011;8371;52.272;9.746;2023-07-28T12:57:24;1.10;;;1.10;;
16516;SDS011;8371;52.272;9.746;2023-07-28T12:59:50;0.90;;;0.90;;
16516;SDS011;8371;52.272;9.746;2023-07-28T13:02:16;1.00;;;1.00;;
16516;SDS011;8371;52.272;9.746;2023-07-28T13:04:43;1.10;;;1.10;;
16516;SDS011;8371;52.272;9.746;2023-07-28T13:07:08;0.70;;;0.70;;
16516;SDS011;8371;52.272;9.746;2023-07-28T13:09:34;1.13;;;1.13;;
16516;SDS011;8371;52.272;9.746;2023-07-28T13:12:00;0.97;;;0.97;;
16516;SDS011;8371;52.272;9.746;2023-07-28T13:14:25;1.00;;;1.00;;
16516;SDS011;8371;52.272;9.746;2023-07-28T13:16:51;1.20;;;1.20;;
16516;SDS011;8371;52.272;9.746;2023-07-28T13:19:17;1.03;;;1.03;;
16516;SDS011;8371;52.272;9.746;2023-07-28T13:21:42;1.20;;;1.20;;
16516;SDS011;8371;52.272;9.746;2023-07-28T13:24:08;1.20;;;1.20;;
16516;SDS011;8371;52.272;9.746;2023-07-28T13:26:34;1.00;;;1.00;;
16516;SDS011;8371;52.272;9.746;2023-07-28T13:28:59;1.60;;;1.60;;
16516;SDS011;8371;52.272;9.746;2023-07-28T13:31:27;0.90;;;0.90;;
16516;SDS011;8371;52.272;9.746;2023-07-28T13:33:53;1.30;;;1.30;;
16516;SDS011;8371;52.272;9.746;2023-07-28T13:36:19;1.17;;;1.17;;
16516;SDS011;8371;52.272;9.746;2023-07-28T13:38:45;1.03;;;1.03;;
16516;SDS011;8371;52.272;9.746;2023-07-28T13:41:11;1.30;;;1.30;;
16516;SDS011;8371;52.272;9.746;2023-07-28T13:43:37;1.10;;;1.10;;
16516;SDS011;8371;52.272;9.746;2023-07-28T13:46:06;1.27;;;1.27;;
16516;SDS011;8371;52.272;9.746;2023-07-28T13:48:35;1.20;;;1.20;;
16516;SDS011;8371;52.272;9.746;2023-07-28T13:51:04;1.10;;;1.10;;
16516;SDS011;8371;52.272;9.746;2023-07-28T13:53:31;1.20;;;1.20;;
16516;SDS011;8371;52.272;9.746;2023-07-28T13:55:56;1.30;;;1.30;;
16516;SDS011;8371;52.272;9.746;2023-07-28T13:58:22;1.37;;;1.37;;
16516;SDS011;8371;52.272;9.746;2023-07-28T14:00:48;1.10;;;1.10;;
16516;SDS011;8371;52.272;9.746;2023-07-28T14:03:14;1.23;;;1.23;;
16516;SDS011;8371;52.272;9.746;2023-07-28T14:05:44;1.07;;;1.07;;
16516;SDS011;8371;52.272;9.746;2023-07-28T14:08:10;1.10;;;1.10;;
16516;SDS011;8371;52.272;9.746;2023-07-28T14:10:36;1.10;;;1.10;;
16516;SDS011;8371;52.272;9.746;2023-07-28T14:13:03;1.30;;;1.20;;
16516;SDS011;8371;52.272;9.746;2023-07-28T14:15:29;1.30;;;1.30;;
16516;SDS011;8371;52.272;9.746;2023-07-28T14:17:55;1.12;;;1.12;;
16516;SDS011;8371;52.272;9.746;2023-07-28T14:20:21;1.10;;;1.10;;
16516;SDS011;8371;52.272;9.746;2023-07-28T14:22:46;1.13;;;1.00;;
16516;SDS011;8371;52.272;9.746;2023-07-28T14:25:12;1.00;;;1.00;;
16516;SDS011;8371;52.272;9.746;2023-07-28T14:27:38;1.07;;;1.07;;
16516;SDS011;8371;52.272;9.746;2023-07-28T14:30:04;0.98;;;0.98;;
16516;SDS011;8371;52.272;9.746;2023-07-28T14:32:30;1.13;;;1.13;;
16516;SDS011;8371;52.272;9.746;2023-07-28T14:34:56;1.07;;;1.07;;
16516;SDS011;8371;52.272;9.746;2023-07-28T14:37:22;1.00;;;1.00;;
16516;SDS011;8371;52.272;9.746;2023-07-28T14:39:47;0.90;;;0.90;;
16516;SDS011;8371;52.272;9.746;2023-07-28T14:42:13;1.20;;;1.20;;
16516;SDS011;8371;52.272;9.746;2023-07-28T14:44:39;1.05;;;1.05;;
16516;SDS011;8371;52.272;9.746;2023-07-28T14:47:05;1.20;;;1.20;;
16516;SDS011;8371;52.272;9.746;2023-07-28T14:49:31;1.25;;;1.15;;
16516;SDS011;8371;52.272;9.746;2023-07-28T14:51:57;1.30;;;1.20;;
16516;SDS011;8371;52.272;9.746;2023-07-28T14:54:22;1.15;;;1.15;;
16516;SDS011;8371;52.272;9.746;2023-07-28T14:56:49;1.00;;;1.00;;
16516;SDS011;8371;52.272;9.746;2023-07-28T14:59:15;0.98;;;0.98;;